Terminal Aerodrome Forecast
Issued by NWS

Home | Current Version | Previous Version | Text Only | Print | Product List | Glossary On
Versions: 1 2 3 4 5 6 7 8 9 10 11 12 13 14
000
FTUS46 KHNX 271313 AAA
TAFFAT
TAF AMD
KFAT 271313Z 2713/2812 31010KT P6SM FEW009 SCT035
      TEMPO 2713/2717 BKN009 BKN035
     FM272000 33014G24KT P6SM SKC
     FM280300 33007KT P6SM SCT250=

USA.gov is the U.S. government's official web portal to all federal, state and local government web resources and services.